Station: Alice Springs Airport

  Atmospheric Gas Attenuation - ITU Rec 676-11   --------------- db/100km ---------------
Date Time Temp RH % AH g/m3 Dew Point Wind Direction Speed kph Gust kph Barometer mB Rainfall Since 9am 24GHz 47GHz 76GHz 122GHz 134GHz 241GHz
07 07:50 8.1 93 7.74 7 11 11 1015.1 0.6 18.0 26.2 39.2 102.8 94.0 322.4
07 07:40 7.4 92 7.32 6.2 9 11 1015 0.6 17.1 25.7 37.8 98.9 89.1 304.9
07 07:30 7.2 91 7.15 5.8 9 11 1013.9 0.6 16.8 25.4 37.1 97.2 86.9 297.2
07 07:20 7 91 7.05 5.6 9 9 1014.6 0.6 16.6 25.4 36.8 96.4 85.8 293.3
07 07:10 6.8 92 7.04 5.6 7 9 1014.4 0.6 16.6 25.4 36.9 96.5 85.8 293.5
07 07:00 6.7 89 6.77 5 7 7 1013.5 0.6 16.0 24.9 35.7 93.6 82.2 280.8
07 06:50 7 88 6.82 5.2 7 7 1014.4 0.6 16.1 25.0 35.9 93.8 82.6 282.3
07 06:40 7.3 89 7.04 5.6 9 9 1014.3 0.6 16.5 25.2 36.6 95.9 85.3 291.6
07 06:30 7.2 89 6.99 5.5 9 13 1013.2 0.6 16.4 25.1 36.4 95.4 84.6 289.4
07 06:20 6.9 89 6.85 5.2 13 15 1014.1 0.6 16.1 25.0 36.0 94.3 83.1 284.0
07 06:10 7.2 86 6.75 5 15 17 1013.9 0.6 15.9 24.8 35.5 92.8 81.4 278.2
07 06:00 7.7 86 6.98 5.5 13 15 1013.1 0.6 16.4 25.0 36.1 94.6 83.9 287.0
07 05:50 7.7 86 6.98 5.5 13 15 1013.8 0.6 16.4 25.0 36.2 94.7 84.0 287.2
07 05:40 7.7 85 6.9 5.3 11 11 1013.7 0.6 16.2 24.9 35.8 93.8 82.9 283.4
07 05:30 7.9 85 6.98 5.5 13 15 1012.9 0.6 16.4 24.9 36.0 94.4 83.7 286.2
07 05:20 7.8 85 6.94 5.4 13 13 1013.6 0.6 16.3 24.9 36.0 94.1 83.3 284.9
07 05:10 8 84 6.95 5.5 13 13 1013.5 0.6 16.3 24.9 35.9 94.0 83.2 284.6
07 04:50 8 85 7.03 5.6 13 15 1013.4 0.6 16.5 25.0 36.2 94.8 84.3 288.4
07 04:40 7.7 85 6.9 5.3 15 15 1013.4 0.6 16.2 24.9 35.8 93.8 82.9 283.3
07 04:30 7.5 85 6.81 5.1 13 15 1012.5 0.6 16.0 24.7 35.5 93.0 81.8 279.6
07 04:20 7.7 84 6.81 5.2 13 15 1013.4 0.6 16.0 24.7 35.5 92.8 81.7 279.1
07 04:10 7.8 84 6.86 5.3 13 13 1013.3 0.6 16.1 24.8 35.6 93.2 82.2 281.1
07 04:00 7.9 83 6.82 5.2 11 13 1012.4 0.6 16.0 24.6 35.4 92.6 81.5 278.6
07 03:50 7.8 84 6.86 5.3 11 11 1013.3 0.6 16.1 24.8 35.6 93.2 82.2 281.1
07 03:40 7.6 84 6.77 5.1 9 11 1013.1 0.6 15.9 24.7 35.3 92.5 81.2 277.5
07 03:30 7.6 83 6.69 4.9 13 17 1012.2 0.6 15.8 24.5 35.0 91.5 80.1 273.5
07 03:20 8 82 6.78 5.1 11 13 1013.1 0.6 15.9 24.6 35.2 92.1 80.9 276.5
07 03:10 8.3 81 6.83 5.2 11 13 1013.1 0.6 16.0 24.6 35.3 92.3 81.3 277.8
07 03:00 8.4 80 6.79 5.2 11 13 1012.1 0.6 15.9 24.4 35.0 91.6 80.6 275.4
07 02:50 8.7 79 6.83 5.3 13 13 1013.1 0.6 16.0 24.5 35.1 91.8 80.9 276.4
07 02:40 9 78 6.88 5.4 11 13 1013.2 0.6 16.1 24.5 35.2 92.0 81.2 277.7
07 02:30 8.8 79 6.88 5.4 11 13 1012.3 0.6 16.1 24.5 35.2 92.2 81.4 278.2
07 02:20 8.5 80 6.83 5.3 13 13 1013.3 0.6 16.0 24.5 35.2 92.1 81.1 277.2
07 02:10 8.9 79 6.92 5.5 15 17 1013.4 0.6 16.2 24.6 35.4 92.6 81.9 279.9
07 02:00 9.3 77 6.92 5.5 15 17 1012.5 0.6 16.2 24.4 35.2 92.0 81.4 278.3
07 01:50 9.5 77 7.01 5.7 13 15 1013.5 0.6 16.4 24.5 35.5 92.8 82.4 282.0
07 01:40 9.4 77 6.97 5.6 13 13 1013.5 0.6 16.3 24.5 35.4 92.5 82.0 280.5
07 01:30 8.8 81 7.05 5.7 9 11 1012.7 0.6 16.5 24.8 35.9 94.0 83.7 286.2
07 01:20 8.8 81 7.05 5.7 7 9 1013.5 0.6 16.5 24.8 35.9 94.1 83.7 286.4
07 01:10 8.7 81 7.01 5.6 6 7 1013.5 0.6 16.4 24.8 35.8 93.8 83.3 284.9
07 01:00 8.1 84 6.99 5.6 7 9 1012.7 0.6 16.4 24.9 36.0 94.2 83.6 285.9
07 00:50 8.4 84 7.13 5.9 9 9 1013.5 0.6 16.7 25.0 36.5 95.5 85.2 291.6
07 00:40 8 81 6.7 4.9 7 9 1013.5 0.6 15.8 24.5 34.9 91.3 79.9 272.9
07 00:30 8 78 6.45 4.4 9 9 1012.7 0.6 15.2 24.0 33.8 88.5 76.5 261.1
07 00:20 8.2 79 6.62 4.8 7 9 1013.5 0.6 15.6 24.3 34.5 90.2 78.6 268.5
07 00:10 7.5 81 6.49 4.5 9 9 1013.4 0.6 15.3 24.2 34.3 89.6 77.6 264.8
07 00:00 8.4 78 6.62 4.8 7 9 1012.4 0.6 15.6 24.2 34.3 89.8 78.4 267.6
06 23:50 8.3 78 6.58 4.7 9 9 1013.4 0.6 15.5 24.2 34.3 89.6 78.0 266.3
06 23:40 8.5 77 6.58 4.7 7 7 1013.6 0.6 15.5 24.1 34.2 89.4 77.8 265.7
06 23:30 8.8 76 6.62 4.8 9 9 1012.8 0.6 15.6 24.1 34.2 89.4 78.0 266.3
06 23:20 8.9 75 6.57 4.7 9 9 1013.6 0.6 15.5 24.0 34.0 88.9 77.3 263.9
06 23:10 8.7 76 6.58 4.7 7 7 1013.5 0.6 15.5 24.1 34.1 89.2 77.6 265.0
06 23:00 9 75 6.61 4.8 6 7 1012.8 0.6 15.5 24.0 34.1 89.1 77.6 265.2
06 22:50 9.1 72 6.39 4.3 6 7 1013.5 0.6 15.1 23.7 33.2 86.7 74.7 255.0
06 22:40 9.8 70 6.5 4.6 2 4 1013.4 0.6 15.3 23.7 33.3 87.1 75.5 257.7
06 22:30 9.8 70 6.5 4.6 6 7 1012.5 0.6 15.3 23.6 33.3 87.0 75.4 257.5
06 22:20 9.8 70 6.5 4.6 7 7 1013.4 0.6 15.3 23.7 33.3 87.1 75.5 257.7
06 22:10 9.9 71 6.63 4.9 7 7 1013.4 0.6 15.5 23.8 33.8 88.4 77.1 263.2
06 22:00 9.7 72 6.64 4.9 7 9 1012.5 0.6 15.6 23.9 33.9 88.6 77.3 264.1
06 21:50 9.4 72 6.51 4.6 7 7 1013.4 0.6 15.3 23.8 33.5 87.7 76.0 259.4
06 21:40 9.6 71 6.51 4.6 0 0 1013.4 0.6 15.3 23.7 33.4 87.4 75.8 258.8
06 21:30 10.2 71 6.76 5.2 0 0 1012.4 0.6 15.8 23.9 34.1 89.3 78.4 267.9
06 21:20 10 68 6.39 4.4 0 2 1013.3 0.6 15.0 23.4 32.8 85.7 73.9 252.0
06 21:10 10.7 66 6.48 4.6 0 0 1013.2 0.6 15.2 23.4 32.9 85.9 74.3 253.8
06 21:00 9.9 70 6.54 4.7 0 0 1012.2 0.6 15.4 23.6 33.4 87.3 75.8 258.9
06 20:50 11 64 6.41 4.5 0 0 1012.9 0.6 15.0 23.2 32.5 84.8 73.2 249.7
06 20:40 11.4 63 6.47 4.6 6 6 1012.8 0.6 15.1 23.2 32.5 85.0 73.5 251.1
06 20:30 11.6 63 6.55 4.8 7 9 1011.8 0.6 15.3 23.2 32.7 85.5 74.3 253.7
06 20:20 11.9 62 6.57 4.9 9 9 1012.6 0.6 15.3 23.2 32.7 85.5 74.3 253.8
06 20:10 12.2 60 6.48 4.7 9 11 1012.5 0.6 15.1 23.0 32.2 84.2 72.9 248.9
06 20:00 12.7 57 6.35 4.4 13 17 1011.4 0.6 14.8 22.6 31.5 82.3 70.8 241.5
06 19:50 13 56 6.35 4.4 13 15 1012 0.6 14.8 22.6 31.4 82.1 70.5 240.8
06 19:40 13.1 55 6.28 4.3 15 19 1011.9 0.6 14.7 22.4 31.1 81.3 69.6 237.4
06 19:30 13.4 54 6.28 4.3 17 24 1010.8 0.6 14.7 22.3 31.0 80.9 69.3 236.3
06 19:20 13.6 53 6.24 4.2 20 24 1011.5 0.6 14.6 22.2 30.8 80.3 68.6 234.2
06 19:10 13.7 54 6.39 4.6 19 20 1011.4 0.6 14.9 22.4 31.3 81.7 70.4 240.3
06 19:00 13.9 52 6.23 4.2 22 28 1010.3 0.6 14.5 22.1 30.6 79.8 68.2 232.7
06 18:50 14.3 49 6.02 3.7 17 20 1011.1 0.6 14.1 21.7 29.7 77.5 65.4 222.9
06 18:40 14.5 48 5.97 3.6 24 30 1010.9 0.6 14.0 21.6 29.4 76.8 64.6 220.2
06 18:30 14.9 43 5.48 2.4 20 28 1009.8 0.6 12.9 20.8 27.5 71.7 58.6 198.9
06 18:20 15.1 42 5.42 2.3 26 32 1010.5 0.6 12.8 20.7 27.3 71.0 57.8 196.2
06 18:10 15.5 40 5.29 2 33 41 1010.5 0.6 12.5 20.4 26.7 69.5 56.0 190.0
06 18:00 15.8 40 5.38 2.2 32 43 1009.5 0.6 12.7 20.4 26.9 70.0 56.8 192.7
06 17:50 16.1 39 5.35 2.2 32 39 1010.2 0.6 12.6 20.3 26.7 69.5 56.2 190.9
06 17:40 16.4 39 5.44 2.4 35 39 1009.9 0.6 12.8 20.4 26.9 70.0 57.0 193.8
06 17:30 16.5 36 5.05 1.4 32 46 1008.7 0.6 12.0 19.8 25.5 66.3 52.6 178.0
06 17:20 16.4 37 5.16 1.7 30 43 1009.2 0.6 12.2 20.0 25.9 67.4 53.9 182.6
06 17:10 16.5 38 5.34 2.2 28 41 1009 0.6 12.6 20.2 26.5 69.0 55.8 189.4
06 17:00 16.6 39 5.51 2.6 30 39 1007.9 0.6 12.9 20.4 27.0 70.3 57.6 195.7
06 16:50 17.4 39 5.78 3.3 30 35 1008.6 0.6 13.5 20.6 27.7 72.2 60.1 204.6
06 16:40 17.8 36 5.46 2.5 28 37 1008.4 0.2 12.8 20.1 26.5 68.9 56.2 191.0
06 16:30 17.8 36 5.46 2.5 30 44 1007.4 0.2 12.8 20.0 26.4 68.8 56.1 190.8
06 16:20 17.8 34 5.16 1.7 30 35 1008.4 0.2 12.1 19.7 25.5 66.2 52.9 179.4
06 16:10 17.4 35 5.19 1.8 33 39 1008.3 0.2 12.2 19.8 25.7 66.8 53.5 181.4
06 16:00 17.5 36 5.37 2.3 28 33 1008.1 0.2 12.6 20.0 26.2 68.3 55.4 188.2
06 15:50 17.6 36 5.4 2.4 28 35 1007.9 0.2 12.7 20.0 26.3 68.5 55.6 189.1
06 15:40 18.8 37 5.96 3.8 32 35 1007.8 0.2 13.8 20.5 27.8 72.5 61.0 208.0
06 15:30 18.2 38 5.91 3.7 33 39 1007.8 0.2 13.7 20.6 27.8 72.6 60.9 207.5
06 15:20 17.8 41 6.22 4.4 22 28 1007.7 0.2 14.4 21.1 29.0 75.8 64.7 220.8
06 15:10 17.6 44 6.6 5.2 33 37 1007.8 0.2 15.2 21.7 30.4 79.5 69.2 236.8

Last Refresh: 07-Aug-2020 08:09:43

Most of the information presented on this site is sourced from the Bureau of Meteorology.  Copyright in all material sourced from the Bureau of Meteorology resides with the Commonwealth of Australia.